createdAt,value
2022-11-05T00:02:22.705Z,100964.58
2022-11-05T00:05:31.588Z,100958.32
2022-11-05T00:08:39.408Z,100951.19
2022-11-05T00:11:43.350Z,100946.70
2022-11-05T00:14:51.456Z,100942.32
2022-11-05T00:17:41.350Z,100936.80
2022-11-05T00:20:30.795Z,100933.48
2022-11-05T00:23:38.685Z,100930.52
2022-11-05T00:26:28.150Z,100930.25
2022-11-05T00:29:17.693Z,100924.39
2022-11-05T00:32:07.720Z,100919.52
2022-11-05T00:34:57.271Z,100911.83
2022-11-05T00:37:50.005Z,100915.41
2022-11-05T00:40:40.147Z,100908.92
2022-11-05T00:43:48.001Z,100914.42
2022-11-05T00:46:37.545Z,100909.16
2022-11-05T00:49:30.052Z,100898.39
2022-11-05T00:52:37.958Z,100894.59
2022-11-05T00:55:32.733Z,100887.81
2022-11-05T00:58:23.435Z,100886.28
2022-11-05T01:01:12.721Z,100882.90
2022-11-05T01:04:02.299Z,100883.20
2022-11-05T01:06:51.822Z,100878.83
2022-11-05T01:09:41.258Z,100878.80
2022-11-05T01:12:31.786Z,100875.27
2022-11-05T01:15:21.629Z,100869.51
2022-11-05T01:18:11.444Z,100868.42
2022-11-05T01:21:09.302Z,100864.09
2022-11-05T01:23:58.759Z,100863.41
2022-11-05T01:26:48.237Z,100861.20
2022-11-05T01:29:37.673Z,100867.58
2022-11-05T01:32:27.223Z,100870.35
2022-11-05T01:35:18.523Z,100867.41
2022-11-05T01:38:07.948Z,100851.99
2022-11-05T01:40:57.493Z,100849.66
2022-11-05T01:43:49.325Z,100846.52
2022-11-05T01:46:43.679Z,100836.33
2022-11-05T01:49:34.184Z,100832.70
2022-11-05T01:52:25.333Z,100824.19
2022-11-05T01:55:19.644Z,100823.08
2022-11-05T01:58:13.283Z,100821.41
2022-11-05T02:01:03.173Z,100821.97
2022-11-05T02:03:56.829Z,100816.64
2022-11-05T02:06:47.066Z,100813.55
2022-11-05T02:09:43.836Z,100809.36
2022-11-05T02:12:34.457Z,100805.21
2022-11-05T02:15:40.006Z,100805.36
2022-11-05T02:18:41.665Z,100803.80
2022-11-05T02:21:58.005Z,100798.48
2022-11-05T02:25:27.200Z,100796.52
2022-11-05T02:28:35.121Z,100791.84
2022-11-05T02:31:33.059Z,100785.79
2022-11-05T02:34:29.803Z,100781.08
2022-11-05T02:37:32.299Z,100774.30
2022-11-05T02:40:29.012Z,100773.32
2022-11-05T02:43:30.274Z,100769.34
2022-11-05T02:46:31.527Z,100760.81
2022-11-05T02:49:33.186Z,100749.52
2022-11-05T02:52:32.359Z,100746.04
2022-11-05T02:55:28.427Z,100734.91
2022-11-05T02:58:17.879Z,100722.81
2022-11-05T03:01:09.516Z,100710.08
2022-11-05T03:04:00.971Z,100699.77
2022-11-05T03:07:03.001Z,100695.41
2022-11-05T03:10:11.357Z,100690.18
2022-11-05T03:13:12.656Z,100682.61
2022-11-05T03:16:07.512Z,100684.02
2022-11-05T03:19:04.885Z,100678.34
2022-11-05T03:22:00.195Z,100671.00
2022-11-05T03:24:55.863Z,100662.33
2022-11-05T03:27:50.199Z,100651.73
2022-11-05T03:30:42.385Z,100637.31
2022-11-05T03:33:36.510Z,100632.24
2022-11-05T03:36:30.956Z,100625.88
2022-11-05T03:39:28.868Z,100614.77
2022-11-05T03:42:21.500Z,100606.74
2022-11-05T03:45:16.580Z,100590.23
2022-11-05T03:48:09.944Z,100571.21
2022-11-05T03:51:04.359Z,100554.59
2022-11-05T03:53:57.552Z,100544.81
2022-11-05T03:56:58.702Z,100546.51
2022-11-05T03:59:50.516Z,100544.33
2022-11-05T04:02:40.208Z,100545.69
2022-11-05T04:05:29.935Z,100548.23
2022-11-05T04:08:37.838Z,100548.19
2022-11-05T04:11:57.266Z,100548.10
2022-11-05T04:14:46.892Z,100526.87
2022-11-05T04:17:36.472Z,100522.94
2022-11-05T04:20:58.714Z,100520.44
2022-11-05T04:24:06.363Z,100511.23
2022-11-05T04:26:55.795Z,100498.00
2022-11-05T04:30:03.607Z,100494.55
2022-11-05T04:33:01.378Z,100476.41
2022-11-05T04:35:50.435Z,100460.54
2022-11-05T04:38:39.775Z,100448.95
2022-11-05T04:41:29.319Z,100431.45
2022-11-05T04:44:18.695Z,100428.63
2022-11-05T04:47:08.207Z,100421.11
2022-11-05T04:49:57.594Z,100423.83
2022-11-05T04:52:47.179Z,100411.10
2022-11-05T04:55:36.652Z,100407.41
2022-11-05T04:58:26.151Z,100393.29
2022-11-05T05:01:17.789Z,100388.92
2022-11-05T05:04:07.146Z,100388.11
2022-11-05T05:06:56.701Z,100382.84
2022-11-05T05:09:46.217Z,100375.42
2022-11-05T05:12:36.179Z,100366.56
2022-11-05T05:15:25.700Z,100356.66
2022-11-05T05:18:15.205Z,100357.83
2022-11-05T05:21:23.121Z,100361.69
2022-11-05T05:24:14.640Z,100348.64
2022-11-05T05:27:03.913Z,100344.96
2022-11-05T05:29:53.289Z,100337.05
2022-11-05T05:32:42.828Z,100328.75
2022-11-05T05:35:32.241Z,100317.45
2022-11-05T05:38:21.740Z,100311.73
2022-11-05T05:41:11.187Z,100300.42
2022-11-05T05:44:01.088Z,100301.56
2022-11-05T05:46:50.535Z,100306.61
2022-11-05T05:49:40.116Z,100297.53
2022-11-05T05:52:29.537Z,100289.95
2022-11-05T05:55:19.066Z,100288.03
2022-11-05T05:58:08.534Z,100290.54
2022-11-05T06:01:01.606Z,100273.71
2022-11-05T06:03:56.323Z,100272.05
2022-11-05T06:06:46.813Z,100279.00
2022-11-05T06:09:35.798Z,100278.45
2022-11-05T06:12:25.289Z,100286.16
2022-11-05T06:15:15.035Z,100280.91
2022-11-05T06:18:04.807Z,100274.98
2022-11-05T06:20:55.364Z,100267.08
2022-11-05T06:23:44.894Z,100270.71
2022-11-05T06:26:34.299Z,100261.32
2022-11-05T06:29:23.745Z,100246.65
2022-11-05T06:32:13.259Z,100240.42
2022-11-05T06:35:02.760Z,100233.24
2022-11-05T06:37:52.250Z,100230.49
2022-11-05T06:40:41.827Z,100231.24
2022-11-05T06:43:31.296Z,100224.52
2022-11-05T06:46:20.991Z,100220.98
2022-11-05T06:49:10.465Z,100213.59
2022-11-05T06:51:59.973Z,100207.58
2022-11-05T06:54:49.550Z,100188.40
2022-11-05T06:57:39.208Z,100191.24
2022-11-05T07:00:28.789Z,100194.19
2022-11-05T07:03:18.409Z,100188.87
2022-11-05T07:06:08.597Z,100179.66
2022-11-05T07:08:58.765Z,100172.69
2022-11-05T07:11:47.822Z,100172.24
2022-11-05T07:14:37.357Z,100170.36
2022-11-05T07:17:28.163Z,100175.09
2022-11-05T07:20:17.835Z,100175.71
2022-11-05T07:23:10.910Z,100177.58
2022-11-05T07:26:01.150Z,100182.33
2022-11-05T07:28:50.538Z,100188.73
2022-11-05T07:31:39.951Z,100185.08
2022-11-05T07:34:29.370Z,100185.61
2022-11-05T07:37:18.839Z,100192.39
2022-11-05T07:40:10.621Z,100186.04
2022-11-05T07:43:01.905Z,100173.27
2022-11-05T07:45:50.957Z,100174.95
2022-11-05T07:48:41.022Z,100173.62
2022-11-05T07:51:30.045Z,100164.33
2022-11-05T07:54:19.582Z,100153.08
2022-11-05T07:57:09.107Z,100158.98
2022-11-05T07:59:58.672Z,100164.45
2022-11-05T08:03:02.309Z,100171.63
2022-11-05T08:05:56.568Z,100172.59
2022-11-05T08:08:47.127Z,100172.89
2022-11-05T08:11:36.652Z,100178.98
2022-11-05T08:14:26.130Z,100179.58
2022-11-05T08:17:18.539Z,100176.95
2022-11-05T08:20:10.145Z,100169.55
2022-11-05T08:22:59.747Z,100165.45
2022-11-05T08:25:49.141Z,100161.16
2022-11-05T08:28:38.680Z,100157.64
2022-11-05T08:31:28.831Z,100152.36
2022-11-05T08:34:18.333Z,100164.42
2022-11-05T08:37:11.370Z,100174.16
2022-11-05T08:40:00.865Z,100174.35
2022-11-05T08:42:50.405Z,100165.45
2022-11-05T08:45:41.108Z,100159.65
2022-11-05T08:48:30.107Z,100153.88
2022-11-05T08:51:19.668Z,100156.84
2022-11-05T08:54:09.366Z,100171.99
2022-11-05T08:56:58.832Z,100169.27
2022-11-05T08:59:48.232Z,100181.74
2022-11-05T09:02:37.703Z,100184.38
2022-11-05T09:05:27.108Z,100181.63
2022-11-05T09:08:18.546Z,100191.39
2022-11-05T09:11:08.751Z,100188.34
2022-11-05T09:13:58.234Z,100193.08
2022-11-05T09:16:47.845Z,100195.16
2022-11-05T09:19:40.081Z,100201.68
2022-11-05T09:22:29.983Z,100205.00
2022-11-05T09:25:19.432Z,100215.06
2022-11-05T09:28:15.917Z,100218.79
2022-11-05T09:31:09.485Z,100218.61
2022-11-05T09:33:58.703Z,100222.89
2022-11-05T09:36:48.252Z,100228.13
2022-11-05T09:39:37.747Z,100223.64
2022-11-05T09:42:33.288Z,100219.77
2022-11-05T09:45:27.121Z,100217.61
2022-11-05T09:48:19.065Z,100211.98
2022-11-05T09:51:18.072Z,100214.20
2022-11-05T09:54:13.473Z,100222.29
2022-11-05T09:57:06.536Z,100219.18
2022-11-05T09:59:59.112Z,100224.46
2022-11-05T10:02:51.415Z,100232.17
2022-11-05T10:05:41.594Z,100236.98
2022-11-05T10:08:40.078Z,100240.23
2022-11-05T10:11:35.728Z,100243.63
2022-11-05T10:14:28.631Z,100244.87
2022-11-05T10:17:23.778Z,100252.87
2022-11-05T10:20:20.282Z,100260.79
2022-11-05T10:23:13.656Z,100266.60
2022-11-05T10:26:06.517Z,100259.30
2022-11-05T10:28:56.231Z,100248.11
2022-11-05T10:31:45.693Z,100247.86
2022-11-05T10:34:37.476Z,100249.31
2022-11-05T10:37:28.695Z,100248.21
2022-11-05T10:40:32.850Z,100237.41
2022-11-05T10:43:30.837Z,100242.66
2022-11-05T10:46:28.509Z,100250.23
2022-11-05T10:49:31.306Z,100255.27
2022-11-05T10:52:24.494Z,100259.21
2022-11-05T10:55:24.684Z,100246.20
2022-11-05T10:58:21.312Z,100245.35
2022-11-05T11:01:12.290Z,100249.09
2022-11-05T11:04:16.260Z,100240.52
2022-11-05T11:07:06.053Z,100240.64
2022-11-05T11:09:55.583Z,100237.20
2022-11-05T11:12:45.073Z,100235.92
2022-11-05T11:15:36.579Z,100238.95
2022-11-05T11:18:31.517Z,100238.02
2022-11-05T11:21:26.494Z,100259.44
2022-11-05T11:24:22.635Z,100258.41
2022-11-05T11:27:15.354Z,100256.21
2022-11-05T11:30:07.193Z,100260.04
2022-11-05T11:33:04.464Z,100268.39
2022-11-05T11:36:00.050Z,100271.98
2022-11-05T11:38:49.639Z,100260.11
2022-11-05T11:41:43.280Z,100259.70
2022-11-05T11:44:36.084Z,100260.45
2022-11-05T11:47:27.779Z,100255.95
2022-11-05T11:50:35.083Z,100254.03
2022-11-05T11:53:29.689Z,100249.62
2022-11-05T11:56:20.787Z,100239.52
2022-11-05T11:59:35.132Z,100236.55
2022-11-05T12:03:11.902Z,100240.73
2022-11-05T12:06:25.145Z,100241.59
2022-11-05T12:09:24.443Z,100243.75
2022-11-05T12:12:16.395Z,100243.23
2022-11-05T12:15:24.902Z,100242.72
2022-11-05T12:18:19.665Z,100239.59
2022-11-05T12:21:34.574Z,100239.69
2022-11-05T12:24:46.012Z,100240.72
2022-11-05T12:27:48.724Z,100242.11
2022-11-05T12:30:48.343Z,100246.55
2022-11-05T12:33:49.871Z,100249.15
2022-11-05T12:36:57.738Z,100255.66
2022-11-05T12:40:01.124Z,100257.23
2022-11-05T12:43:10.529Z,100253.60
2022-11-05T12:46:09.977Z,100256.05
2022-11-05T12:49:42.403Z,100257.82
2022-11-05T12:53:03.123Z,100262.55
2022-11-05T12:55:59.681Z,100264.64
2022-11-05T12:58:55.941Z,100268.45
2022-11-05T13:01:50.554Z,100270.19
2022-11-05T13:04:44.989Z,100274.34
2022-11-05T13:07:38.397Z,100274.27
2022-11-05T13:10:33.193Z,100280.31
2022-11-05T13:13:30.860Z,100283.77
2022-11-05T13:16:27.026Z,100280.52
2022-11-05T13:19:26.800Z,100278.73
2022-11-05T13:22:31.133Z,100272.51
2022-11-05T13:25:23.572Z,100267.46
2022-11-05T13:28:21.359Z,100268.10
2022-11-05T13:31:15.681Z,100270.50
2022-11-05T13:34:10.149Z,100269.09
2022-11-05T13:37:21.668Z,100268.20
2022-11-05T13:40:15.159Z,100267.27
2022-11-05T13:43:16.041Z,100259.13
2022-11-05T13:46:23.722Z,100258.21
2022-11-05T13:49:44.609Z,100260.58
2022-11-05T13:52:52.401Z,100263.99
2022-11-05T13:55:56.760Z,100268.11
2022-11-05T13:59:04.526Z,100274.45
2022-11-05T14:01:58.387Z,100271.19
2022-11-05T14:04:54.462Z,100269.17
2022-11-05T14:07:48.811Z,100265.05
2022-11-05T14:10:40.064Z,100270.12
2022-11-05T14:13:35.325Z,100273.95
2022-11-05T14:16:26.657Z,100270.13
2022-11-05T14:19:35.533Z,100267.48
2022-11-05T14:22:38.876Z,100262.66
2022-11-05T14:26:12.487Z,100264.20
2022-11-05T14:29:24.071Z,100264.02
2022-11-05T14:32:27.856Z,100267.65
2022-11-05T14:35:36.986Z,100271.92
2022-11-05T14:38:27.893Z,100276.63
2022-11-05T14:41:17.626Z,100279.66
2022-11-05T14:44:11.558Z,100277.61
2022-11-05T14:47:07.200Z,100279.73
2022-11-05T14:50:01.890Z,100281.15
2022-11-05T14:52:56.304Z,100281.52
2022-11-05T14:55:45.524Z,100280.63
2022-11-05T14:58:37.604Z,100284.02
2022-11-05T15:01:59.192Z,100283.89
2022-11-05T15:04:50.248Z,100284.98
2022-11-05T15:07:39.700Z,100279.23
2022-11-05T15:10:34.703Z,100278.31
2022-11-05T15:13:31.290Z,100278.27
2022-11-05T15:16:25.718Z,100281.44
2022-11-05T15:19:21.460Z,100285.20
2022-11-05T15:22:30.056Z,100288.00
2022-11-05T15:25:26.125Z,100289.20
2022-11-05T15:28:26.071Z,100282.63
2022-11-05T15:31:36.082Z,100277.52
2022-11-05T15:34:28.335Z,100276.63
2022-11-05T15:37:27.710Z,100272.28
2022-11-05T15:40:24.712Z,100275.29
2022-11-05T15:43:19.202Z,100278.81
2022-11-05T15:46:16.081Z,100276.00
2022-11-05T15:49:06.525Z,100274.60
2022-11-05T15:51:54.841Z,100274.17
2022-11-05T15:54:44.573Z,100275.50
2022-11-05T15:57:39.300Z,100280.07
2022-11-05T16:00:32.017Z,100285.40
2022-11-05T16:03:29.101Z,100288.16
2022-11-05T16:06:28.570Z,100287.19
2022-11-05T16:09:27.630Z,100288.73
2022-11-05T16:12:25.560Z,100293.65
2022-11-05T16:15:24.712Z,100295.52
2022-11-05T16:18:22.989Z,100301.12
2022-11-05T16:21:14.761Z,100299.69
2022-11-05T16:24:04.674Z,100302.49
2022-11-05T16:27:04.333Z,100308.33
2022-11-05T16:29:56.697Z,100310.19
2022-11-05T16:32:47.311Z,100312.52
2022-11-05T16:35:47.535Z,100307.91
2022-11-05T16:38:36.771Z,100311.91
2022-11-05T16:41:27.406Z,100314.41
2022-11-05T16:44:17.171Z,100317.67
2022-11-05T16:47:08.312Z,100318.88
2022-11-05T16:49:58.463Z,100318.46
2022-11-05T16:52:48.290Z,100320.59
2022-11-05T16:55:39.894Z,100322.19
2022-11-05T16:58:29.148Z,100332.48
2022-11-05T17:01:22.288Z,100339.71
2022-11-05T17:04:13.917Z,100340.61
2022-11-05T17:07:03.387Z,100341.37
2022-11-05T17:09:52.872Z,100344.04
2022-11-05T17:12:43.345Z,100339.70
2022-11-05T17:15:34.918Z,100337.02
2022-11-05T17:18:24.623Z,100346.70
2022-11-05T17:21:15.023Z,100352.46
2022-11-05T17:24:04.789Z,100352.88
2022-11-05T17:26:54.372Z,100353.98
2022-11-05T17:29:43.800Z,100347.05
2022-11-05T17:32:33.479Z,100344.48
2022-11-05T17:35:23.442Z,100349.14
2022-11-05T17:38:13.435Z,100353.29
2022-11-05T17:41:09.631Z,100355.94
2022-11-05T17:43:59.815Z,100353.61
2022-11-05T17:46:49.227Z,100351.54
2022-11-05T17:49:38.726Z,100346.99
2022-11-05T17:52:29.168Z,100342.64
2022-11-05T17:55:17.759Z,100343.11
2022-11-05T17:58:07.342Z,100338.72
2022-11-05T18:00:56.814Z,100334.53
2022-11-05T18:03:46.193Z,100331.70
2022-11-05T18:06:36.123Z,100335.14
2022-11-05T18:09:25.585Z,100338.80
2022-11-05T18:12:15.156Z,100336.77
2022-11-05T18:15:05.756Z,100327.96
2022-11-05T18:17:55.319Z,100320.48
2022-11-05T18:20:45.588Z,100311.04
2022-11-05T18:23:34.720Z,100316.64
2022-11-05T18:26:24.119Z,100317.67
2022-11-05T18:29:13.605Z,100312.11
2022-11-05T18:32:03.448Z,100306.20
2022-11-05T18:34:52.924Z,100303.92
2022-11-05T18:37:42.756Z,100303.17
2022-11-05T18:40:32.423Z,100303.41
2022-11-05T18:43:22.076Z,100292.23
2022-11-05T18:46:29.202Z,100287.62
2022-11-05T18:49:21.801Z,100283.77
2022-11-05T18:52:11.453Z,100274.98
2022-11-05T18:55:00.913Z,100272.49
2022-11-05T18:57:50.361Z,100272.87
2022-11-05T19:00:40.839Z,100273.46
2022-11-05T19:03:30.496Z,100269.77
2022-11-05T19:06:20.463Z,100264.48
2022-11-05T19:09:11.447Z,100258.50
2022-11-05T19:12:01.078Z,100255.85
2022-11-05T19:14:50.620Z,100254.59
2022-11-05T19:17:39.954Z,100254.52
2022-11-05T19:20:33.662Z,100247.90
2022-11-05T19:23:26.283Z,100242.95
2022-11-05T19:26:20.850Z,100240.42
2022-11-05T19:29:13.848Z,100236.38
2022-11-05T19:32:03.820Z,100236.37
2022-11-05T19:34:53.417Z,100231.54
2022-11-05T19:37:43.033Z,100230.91
2022-11-05T19:40:32.601Z,100231.35
2022-11-05T19:43:22.261Z,100229.80
2022-11-05T19:46:15.165Z,100219.86
2022-11-05T19:49:04.762Z,100213.13
2022-11-05T19:51:54.445Z,100204.38
2022-11-05T19:54:45.532Z,100203.17
2022-11-05T19:57:36.573Z,100197.48
2022-11-05T20:00:26.046Z,100196.87
2022-11-05T20:03:15.789Z,100195.33
2022-11-05T20:06:08.276Z,100198.94
2022-11-05T20:09:20.615Z,100204.58
2022-11-05T20:12:08.829Z,100205.78
2022-11-05T20:14:58.583Z,100201.80
2022-11-05T20:17:54.572Z,100202.05
2022-11-05T20:20:44.622Z,100199.38
2022-11-05T20:23:33.440Z,100196.30
2022-11-05T20:26:23.216Z,100196.81
2022-11-05T20:29:12.861Z,100190.98
2022-11-05T20:32:02.834Z,100187.55
2022-11-05T20:34:52.384Z,100181.36
2022-11-05T20:37:41.991Z,100173.58
2022-11-05T20:40:31.503Z,100174.38
2022-11-05T20:43:23.748Z,100177.41
2022-11-05T20:46:18.797Z,100177.39
2022-11-05T20:49:08.287Z,100176.48
2022-11-05T20:51:58.107Z,100175.59
2022-11-05T20:54:48.248Z,100177.72
2022-11-05T20:57:38.438Z,100175.66
2022-11-05T21:00:30.786Z,100168.79
2022-11-05T21:03:20.840Z,100161.35
2022-11-05T21:06:10.408Z,100153.87
2022-11-05T21:09:00.547Z,100148.96
2022-11-05T21:12:08.219Z,100150.55
2022-11-05T21:14:57.642Z,100148.65
2022-11-05T21:17:47.200Z,100142.40
2022-11-05T21:20:39.870Z,100131.55
2022-11-05T21:23:31.576Z,100127.46
2022-11-05T21:26:21.256Z,100127.00
2022-11-05T21:29:11.101Z,100121.16
2022-11-05T21:32:00.720Z,100116.23
2022-11-05T21:34:50.472Z,100111.50
2022-11-05T21:37:39.981Z,100112.58
2022-11-05T21:40:29.434Z,100113.64
2022-11-05T21:43:18.980Z,100112.35
2022-11-05T21:46:09.552Z,100104.19
2022-11-05T21:48:59.050Z,100097.65
2022-11-05T21:52:06.735Z,100090.92
2022-11-05T21:55:14.559Z,100090.70
2022-11-05T21:58:30.658Z,100088.95
2022-11-05T22:01:20.512Z,100079.85
2022-11-05T22:04:10.107Z,100074.89
2022-11-05T22:07:00.290Z,100070.64
2022-11-05T22:09:49.945Z,100069.37
2022-11-05T22:12:39.375Z,100064.33
2022-11-05T22:15:29.785Z,100058.56
2022-11-05T22:18:18.548Z,100054.83
2022-11-05T22:21:08.314Z,100047.11
2022-11-05T22:23:57.734Z,100046.05
2022-11-05T22:26:47.787Z,100039.95
2022-11-05T22:29:37.637Z,100043.64
2022-11-05T22:32:28.688Z,100036.79
2022-11-05T22:35:19.199Z,100037.86
2022-11-05T22:38:08.719Z,100032.58
2022-11-05T22:40:58.098Z,100024.64
2022-11-05T22:43:47.782Z,100020.72
2022-11-05T22:46:38.040Z,100017.23
2022-11-05T22:49:27.426Z,100016.82
2022-11-05T22:52:19.671Z,100012.95
2022-11-05T22:55:10.115Z,100003.94
2022-11-05T22:57:58.429Z,99997.23
2022-11-05T23:00:47.861Z,99989.61
2022-11-05T23:03:37.851Z,99975.88
2022-11-05T23:06:47.774Z,99973.95
2022-11-05T23:09:51.576Z,99975.72
2022-11-05T23:12:43.862Z,99974.20
2022-11-05T23:15:51.703Z,99969.29
2022-11-05T23:18:59.130Z,99968.15
2022-11-05T23:22:06.941Z,99965.71
2022-11-05T23:24:56.382Z,99960.83
2022-11-05T23:27:53.231Z,99955.25
2022-11-05T23:30:59.159Z,99952.21
2022-11-05T23:33:48.837Z,99951.73
2022-11-05T23:36:56.355Z,99949.48
2022-11-05T23:39:45.810Z,99939.39
2022-11-05T23:42:53.928Z,99942.17
2022-11-05T23:46:02.932Z,99930.83
2022-11-05T23:48:52.397Z,99926.62
2022-11-05T23:51:41.818Z,99918.27
2022-11-05T23:54:31.185Z,99903.09
2022-11-05T23:57:22.363Z,99899.23
